This is the latest recevied weather packets stored in our database for station/object VA3VWX-13. If no packets are shown the sender has not sent any weather packets the latest 10 day(s).
| Time | Temp. | Humidity | Pressure | Rain* | Wind** | Luminosity | Snow |
|---|---|---|---|---|---|---|---|
| 1777868915 | 13.33° C | 56% | 1006.9 hPa | 0 mm | - | - | - |
| 1777868622 | 13.33° C | 56% | 1006.9 hPa | 0 mm | - | - | - |
| 1777868322 | 13.33° C | 56% | 1006.9 hPa | 0 mm | - | - | - |
| 1777868007 | 13.33° C | 56% | 1006.9 hPa | 0 mm | - | - | - |
| 1777867704 | 13.33° C | 56% | 1006.9 hPa | 0 mm | - | - | - |
| 1777867434 | 13.33° C | 56% | 1006.9 hPa | 0 mm | - | - | - |
| 1777867114 | 13.33° C | 56% | 1006.8 hPa | 0 mm | - | - | - |
| 1777866822 | 13.33° C | 56% | 1006.9 hPa | 0 mm | - | - | - |
| 1777866528 | 12.78° C | 56% | 1006.9 hPa | 0 mm | - | - | - |
| 1777866205 | 12.78° C | 57% | 1006.9 hPa | 0 mm | - | - | - |
| 1777865912 | 12.78° C | 58% | 1007.1 hPa | 0 mm | - | - | - |
| 1777865615 | 12.22° C | 61% | 1007.3 hPa | 0 mm | - | - | - |
| 1777865313 | 11.11° C | 66% | 1007.3 hPa | 0 mm | - | - | - |
| 1777865019 | 10° C | 75% | 1007.3 hPa | 0 mm | - | - | - |
| 1777864705 | 8.89° C | 77% | 1007.5 hPa | 0 mm | - | - | - |
| 1777864403 | 8.89° C | 77% | 1007.4 hPa | 0 mm | - | - | - |
| 1777864110 | 8.89° C | 77% | 1007.5 hPa | 0 mm | - | - | - |
| 1777863828 | 8.89° C | 77% | 1007.6 hPa | 0 mm | - | - | - |
| 1777863517 | 9.44° C | 77% | 1007.6 hPa | 0 mm | - | - | - |
| 1777863224 | 9.44° C | 78% | 1007.6 hPa | 0 mm | - | - | - |
| 1777862918 | 8.89° C | 78% | 1007.7 hPa | 0 mm | - | - | - |
| 1777862606 | 8.89° C | 78% | 1007.7 hPa | 0 mm | - | - | - |
| 1777862314 | 8.89° C | 78% | 1007.7 hPa | 0 mm | - | - | - |
| 1777862012 | 8.89° C | 78% | 1007.7 hPa | 0 mm | - | - | - |
| 1777861720 | 8.89° C | 78% | 1007.8 hPa | 0 mm | - | - | - |
* Rain latest hour (hover to see other rain measurements)
** Current wind speed in m/s (hover to see current wind gust speed)